Time;durP1;ratioP1;P1;durP2;ratioP2;P2;SDS_P1;SDS_P2;PMS_P1;PMS_P2;Temp;Humidity;BMP_temperature;BMP_pressure;BME280_temperature;BME280_humidity;BME280_pressure;Samples;Min_cycle;Max_cycle;Signal;HPM_P1;HPM_P2
2021/01/18 00:00:33;;;;;;;15.27;9.43;;;9.70;68.20;;;;;;2056655;28;20030;-72
2021/01/18 00:01:54;;;;;;;14.18;8.05;;;9.70;68.20;;;;;;2055127;28;20612;-71
2021/01/18 00:03:15;;;;;;;14.60;7.57;;;9.70;68.20;;;;;;2053764;28;20328;-72
2021/01/18 00:04:36;;;;;;;14.88;8.13;;;9.70;68.20;;;;;;2053786;28;20121;-72
2021/01/18 00:05:57;;;;;;;15.13;7.75;;;9.70;68.20;;;;;;2043250;28;20102;-72
2021/01/18 00:07:18;;;;;;;13.98;8.85;;;9.70;68.20;;;;;;2050825;28;20513;-72
2021/01/18 00:08:39;;;;;;;13.30;7.82;;;9.70;68.20;;;;;;2055582;28;20382;-72
2021/01/18 00:09:59;;;;;;;12.80;7.38;;;9.70;68.20;;;;;;2049216;28;20043;-72
2021/01/18 00:11:22;;;;;;;12.60;8.02;;;9.70;68.20;;;;;;2054311;28;20461;-72
2021/01/18 00:12:44;;;;;;;16.65;8.30;;;9.70;68.20;;;;;;2054448;28;20462;-72
2021/01/18 00:14:05;;;;;;;14.40;7.85;;;9.70;68.20;;;;;;2054510;28;20027;-71
2021/01/18 00:15:26;;;;;;;11.93;7.50;;;9.70;68.20;;;;;;2054942;28;20410;-71
2021/01/18 00:16:47;;;;;;;11.80;7.90;;;9.70;68.20;;;;;;2055181;28;20398;-71
2021/01/18 00:18:07;;;;;;;10.65;7.82;;;9.70;68.20;;;;;;2053953;28;20027;-71
2021/01/18 00:19:28;;;;;;;17.15;8.00;;;9.70;68.20;;;;;;2057350;28;20027;-72
2021/01/18 00:20:49;;;;;;;13.25;7.50;;;9.70;68.30;;;;;;2055645;28;20034;-72
2021/01/18 00:22:10;;;;;;;11.82;7.10;;;9.70;68.20;;;;;;2056068;28;20030;-71
2021/01/18 00:23:31;;;;;;;15.50;8.15;;;9.70;68.10;;;;;;2056216;28;20026;-72
2021/01/18 00:24:51;;;;;;;12.25;6.72;;;9.60;68.10;;;;;;2052466;28;20068;-72
2021/01/18 00:26:13;;;;;;;15.40;7.40;;;9.70;68.20;;;;;;2055535;28;20174;-71
2021/01/18 00:27:33;;;;;;;14.23;7.13;;;9.70;68.10;;;;;;2056447;28;20121;-73
2021/01/18 00:28:54;;;;;;;13.02;7.65;;;9.70;68.10;;;;;;2048405;28;20142;-71
2021/01/18 00:30:21;;;;;;;12.88;7.65;;;9.70;68.10;;;;;;2055503;28;20039;-71
2021/01/18 00:31:45;;;;;;;14.07;7.03;;;9.70;68.10;;;;;;2056592;28;20042;-71
2021/01/18 00:33:06;;;;;;;11.23;7.05;;;9.70;68.10;;;;;;2058386;28;20050;-71
2021/01/18 00:34:27;;;;;;;10.98;7.03;;;9.70;68.10;;;;;;2053680;28;20027;-72
2021/01/18 00:35:48;;;;;;;12.25;6.78;;;9.70;68.10;;;;;;2052010;28;20038;-72
2021/01/18 00:37:09;;;;;;;13.60;6.72;;;9.60;68.00;;;;;;2050884;28;20065;-71
2021/01/18 00:38:30;;;;;;;12.32;6.60;;;9.70;68.00;;;;;;2046198;29;20027;-71
2021/01/18 00:39:51;;;;;;;11.63;7.00;;;9.60;67.90;;;;;;2051648;28;20023;-71
2021/01/18 00:41:12;;;;;;;11.73;7.05;;;9.60;67.90;;;;;;2056017;28;20063;-71
2021/01/18 00:42:33;;;;;;;15.20;7.20;;;9.60;67.90;;;;;;2050802;28;20031;-72
2021/01/18 00:43:53;;;;;;;11.63;6.88;;;9.60;67.90;;;;;;2052372;28;20034;-70
2021/01/18 00:45:17;;;;;;;13.80;6.15;;;9.60;67.80;;;;;;2056251;28;20149;-71
2021/01/18 00:46:38;;;;;;;13.38;7.32;;;9.70;67.80;;;;;;2055031;28;20152;-71
2021/01/18 00:47:58;;;;;;;11.70;6.65;;;9.60;67.80;;;;;;2060062;28;20331;-72
2021/01/18 00:49:19;;;;;;;12.02;6.78;;;9.60;67.70;;;;;;2055216;28;20038;-71
2021/01/18 00:50:41;;;;;;;13.32;6.70;;;9.60;67.70;;;;;;2055973;28;20034;-71
2021/01/18 00:52:02;;;;;;;11.88;7.28;;;9.60;67.70;;;;;;2048730;28;20434;-71
2021/01/18 00:53:22;;;;;;;12.65;7.47;;;9.60;67.70;;;;;;2057532;28;20041;-71
2021/01/18 00:54:43;;;;;;;12.20;7.38;;;9.60;67.70;;;;;;2057380;28;20387;-70
2021/01/18 00:56:04;;;;;;;14.20;7.10;;;9.60;67.70;;;;;;2055487;28;20045;-70
2021/01/18 00:57:34;;;;;;;14.63;8.50;;;9.60;67.70;;;;;;2056090;28;20043;-72
2021/01/18 00:58:55;;;;;;;14.82;8.20;;;9.60;67.70;;;;;;2055934;28;20049;-72
2021/01/18 01:00:19;;;;;;;14.00;8.80;;;9.60;67.60;;;;;;2055995;28;20366;-70
2021/01/18 01:01:40;;;;;;;15.32;8.43;;;9.60;67.50;;;;;;2057033;28;20047;-72
2021/01/18 01:03:01;;;;;;;14.65;9.15;;;9.70;67.60;;;;;;2057866;28;20384;-72
2021/01/18 01:04:22;;;;;;;15.88;9.32;;;9.60;67.50;;;;;;2057926;28;20041;-72
2021/01/18 01:05:43;;;;;;;15.75;8.63;;;9.60;67.50;;;;;;2057333;28;20123;-70
2021/01/18 01:07:04;;;;;;;18.55;9.48;;;9.60;67.60;;;;;;2056811;28;20046;-71
2021/01/18 01:08:25;;;;;;;16.33;9.30;;;9.60;67.60;;;;;;2053564;28;20073;-70
2021/01/18 01:09:46;;;;;;;16.20;8.70;;;9.60;67.50;;;;;;2056952;28;20030;-70
2021/01/18 01:11:07;;;;;;;15.05;9.73;;;9.60;67.60;;;;;;2055695;28;20023;-70
2021/01/18 01:12:27;;;;;;;14.60;9.07;;;9.60;67.60;;;;;;2057187;28;20082;-70
2021/01/18 01:13:48;;;;;;;14.95;10.23;;;9.60;67.60;;;;;;2052773;28;20453;-70
2021/01/18 01:15:10;;;;;;;11.35;8.85;;;9.60;67.60;;;;;;2051801;28;20037;-72
2021/01/18 01:16:31;;;;;;;15.68;9.40;;;9.60;67.60;;;;;;2055272;28;20364;-72
2021/01/18 01:17:52;;;;;;;13.55;9.95;;;9.60;67.60;;;;;;2056965;28;20086;-71
2021/01/18 01:19:13;;;;;;;16.38;10.20;;;9.60;67.60;;;;;;2057478;28;20436;-71
2021/01/18 01:20:33;;;;;;;13.55;8.88;;;9.60;67.50;;;;;;2048921;28;20038;-71
2021/01/18 01:21:54;;;;;;;16.35;9.60;;;9.60;67.60;;;;;;2048686;28;20039;-72
2021/01/18 01:23:15;;;;;;;15.15;9.40;;;9.60;67.50;;;;;;2058693;28;20038;-70
2021/01/18 01:24:36;;;;;;;15.95;10.18;;;9.60;67.50;;;;;;2056330;28;20474;-71
2021/01/18 01:25:57;;;;;;;13.43;9.20;;;9.50;67.50;;;;;;2059368;28;20026;-70
2021/01/18 01:27:18;;;;;;;14.48;9.45;;;9.60;67.50;;;;;;2056192;28;20023;-69
2021/01/18 01:28:38;;;;;;;15.75;9.48;;;9.50;67.40;;;;;;2054378;28;20039;-71
2021/01/18 01:29:59;;;;;;;17.73;9.35;;;9.50;67.50;;;;;;2044840;29;20212;-71
2021/01/18 01:31:20;;;;;;;16.30;9.93;;;9.50;67.50;;;;;;2045882;28;20031;-72
2021/01/18 01:32:43;;;;;;;15.70;10.43;;;9.50;67.50;;;;;;2055181;28;20106;-71
2021/01/18 01:34:04;;;;;;;14.90;9.85;;;9.50;67.50;;;;;;2055512;28;20039;-71
2021/01/18 01:35:27;;;;;;;16.98;9.65;;;9.50;67.50;;;;;;2054405;28;20035;-71
2021/01/18 01:36:48;;;;;;;16.45;9.35;;;9.50;67.50;;;;;;2055760;28;20046;-71
2021/01/18 01:38:10;;;;;;;16.60;10.35;;;9.50;67.50;;;;;;2052784;28;21970;-71
2021/01/18 01:39:31;;;;;;;17.15;10.40;;;9.50;67.50;;;;;;2056608;28;20527;-72
2021/01/18 01:40:51;;;;;;;14.63;9.85;;;9.50;67.50;;;;;;2056850;28;20357;-72
2021/01/18 01:42:20;;;;;;;11.80;8.57;;;9.50;67.50;;;;;;2052698;28;20114;-72
2021/01/18 01:43:41;;;;;;;15.65;9.80;;;9.50;67.50;;;;;;2046955;28;20027;-71
2021/01/18 01:45:03;;;;;;;15.38;9.50;;;9.50;67.50;;;;;;2052853;28;20089;-72
2021/01/18 01:46:24;;;;;;;13.20;8.95;;;9.50;67.60;;;;;;2048330;28;20037;-71
2021/01/18 01:47:48;;;;;;;14.07;9.52;;;9.50;67.60;;;;;;2053824;28;20058;-71
2021/01/18 01:49:08;;;;;;;15.30;9.63;;;9.50;67.60;;;;;;2058866;28;20045;-71
2021/01/18 01:50:35;;;;;;;15.98;10.02;;;9.50;67.70;;;;;;2047263;29;20051;-71
2021/01/18 01:51:56;;;;;;;15.25;9.55;;;9.50;67.70;;;;;;2053908;28;20033;-71
2021/01/18 01:53:36;;;;;;;14.18;9.07;;;9.40;67.50;;;;;;2053117;28;20019;-71
2021/01/18 01:55:11;;;;;;;13.73;8.57;;;9.50;67.60;;;;;;2049529;28;20027;-71
2021/01/18 01:56:32;;;;;;;14.95;8.80;;;9.50;67.40;;;;;;2054849;28;20038;-71
2021/01/18 01:57:54;;;;;;;13.85;9.35;;;9.50;67.40;;;;;;2052642;28;20514;-71
2021/01/18 01:59:15;;;;;;;14.02;8.93;;;9.40;67.30;;;;;;2056008;28;20690;-71
2021/01/18 02:00:39;;;;;;;15.55;9.25;;;9.50;67.40;;;;;;2055801;28;20097;-72
2021/01/18 02:02:00;;;;;;;14.90;8.60;;;9.50;67.40;;;;;;2056210;28;20054;-71
2021/01/18 02:03:45;;;;;;;13.23;8.45;;;9.50;67.30;;;;;;2052896;28;20030;-71
2021/01/18 02:05:13;;;;;;;11.73;8.27;;;9.50;67.40;;;;;;2050875;28;20077;-71
2021/01/18 02:06:35;;;;;;;12.30;8.38;;;9.40;67.40;;;;;;2057240;28;20053;-71
2021/01/18 02:08:03;;;;;;;14.85;9.57;;;9.50;67.40;;;;;;2051394;28;20476;-71
2021/01/18 02:09:24;;;;;;;14.13;9.05;;;9.50;67.50;;;;;;2057709;28;20030;-71
2021/01/18 02:10:45;;;;;;;15.38;9.13;;;9.50;67.40;;;;;;2063779;28;20057;-69
2021/01/18 02:12:06;;;;;;;13.43;9.25;;;9.50;67.40;;;;;;2045855;29;20411;-71
2021/01/18 02:13:43;;;;;;;12.70;8.68;;;9.50;67.30;;;;;;2047944;28;20023;-72
2021/01/18 02:15:22;;;;;;;13.68;9.15;;;9.40;67.20;;;;;;2056273;28;20045;-70
2021/01/18 02:17:00;;;;;;;13.57;8.55;;;9.50;67.20;;;;;;2055997;28;20039;-70
2021/01/18 02:18:44;;;;;;;18.17;8.82;;;9.50;67.30;;;;;;2053134;28;20078;-69
2021/01/18 02:20:43;;;;;;;15.50;8.95;;;9.40;67.30;;;;;;2056018;28;20354;-69
2021/01/18 02:22:36;;;;;;;13.38;8.15;;;9.50;67.40;;;;;;2051313;28;20043;-72
2021/01/18 02:24:36;;;;;;;12.05;7.65;;;9.50;67.20;;;;;;2045652;29;20118;-72
2021/01/18 02:26:20;;;;;;;10.82;7.70;;;9.50;67.20;;;;;;2055628;28;20026;-71
2021/01/18 02:28:13;;;;;;;14.48;8.75;;;9.50;67.10;;;;;;2059848;28;20204;-71
2021/01/18 02:29:47;;;;;;;13.98;7.78;;;9.50;67.10;;;;;;2047509;28;20046;-71
2021/01/18 02:31:19;;;;;;;12.95;7.60;;;9.50;67.10;;;;;;2053287;28;20027;-73
2021/01/18 02:33:12;;;;;;;14.52;9.07;;;9.40;66.90;;;;;;2054718;28;20034;-72
2021/01/18 02:35:06;;;;;;;14.20;8.30;;;9.40;66.90;;;;;;2055064;28;20034;-71
2021/01/18 02:36:33;;;;;;;14.40;8.10;;;9.40;66.80;;;;;;2055110;28;20022;-71
2021/01/18 02:38:17;;;;;;;11.15;7.57;;;9.40;66.70;;;;;;2051094;28;20463;-70
2021/01/18 02:39:41;;;;;;;12.05;8.00;;;9.40;66.80;;;;;;2060622;28;20049;-70
2021/01/18 02:41:14;;;;;;;10.65;7.50;;;9.40;66.70;;;;;;2051768;28;20037;-70
2021/01/18 02:42:41;;;;;;;11.63;7.68;;;9.40;66.70;;;;;;2046360;28;20118;-71
2021/01/18 02:44:09;;;;;;;17.92;8.27;;;9.40;66.80;;;;;;2054172;28;20114;-70
2021/01/18 02:45:31;;;;;;;11.30;7.90;;;9.40;66.80;;;;;;2049066;28;20114;-70
2021/01/18 02:46:53;;;;;;;10.80;7.50;;;9.40;67.50;;;;;;2055697;28;20022;-70
2021/01/18 02:48:14;;;;;;;12.02;7.78;;;9.40;66.80;;;;;;2051043;28;20035;-70
2021/01/18 02:49:36;;;;;;;10.93;7.75;;;9.40;66.90;;;;;;2056562;28;20106;-70
2021/01/18 02:51:03;;;;;;;11.43;7.57;;;9.30;66.90;;;;;;2056587;28;20030;-70
2021/01/18 02:52:24;;;;;;;11.48;6.95;;;9.30;66.90;;;;;;2053517;28;20033;-72
2021/01/18 02:54:05;;;;;;;14.35;8.27;;;9.40;66.90;;;;;;2050725;28;20026;-71
2021/01/18 02:55:26;;;;;;;11.93;7.35;;;9.30;66.80;;;;;;2053997;28;20027;-71
2021/01/18 02:56:52;;;;;;;16.02;7.75;;;9.30;66.70;;;;;;2055944;28;20061;-71
2021/01/18 02:58:19;;;;;;;12.88;7.53;;;9.30;66.80;;;;;;2046615;28;20016;-71
2021/01/18 02:59:41;;;;;;;14.30;7.90;;;9.30;66.80;;;;;;2061188;28;20018;-71
2021/01/18 03:01:17;;;;;;;12.30;6.78;;;9.30;66.80;;;;;;2054432;28;20525;-71
2021/01/18 03:02:53;;;;;;;11.65;7.93;;;9.30;66.90;;;;;;2058422;28;20146;-71
2021/01/18 03:04:40;;;;;;;13.45;7.07;;;9.30;66.90;;;;;;2052891;28;20297;-72
2021/01/18 03:06:34;;;;;;;11.10;6.97;;;9.40;67.20;;;;;;2059118;28;20038;-71
2021/01/18 03:07:58;;;;;;;10.10;7.03;;;9.30;67.00;;;;;;2051378;28;20031;-71
2021/01/18 03:09:25;;;;;;;12.77;7.82;;;9.40;66.90;;;;;;2057585;28;20046;-71
2021/01/18 03:11:31;;;;;;;11.65;7.45;;;9.30;66.80;;;;;;2056004;28;20421;-71
2021/01/18 03:13:02;;;;;;;19.25;7.45;;;9.40;67.10;;;;;;2037325;29;20047;-71
2021/01/18 03:14:29;;;;;;;10.38;7.45;;;9.40;66.80;;;;;;2037508;29;20067;-71
2021/01/18 03:15:56;;;;;;;13.20;7.28;;;9.30;66.70;;;;;;2038863;29;20015;-71
2021/01/18 03:17:22;;;;;;;12.32;7.18;;;9.30;66.60;;;;;;2040020;29;20042;-71
2021/01/18 03:18:43;;;;;;;13.90;7.82;;;9.30;66.60;;;;;;2055268;28;20118;-71
2021/01/18 03:20:05;;;;;;;10.75;7.60;;;9.30;66.70;;;;;;2057938;28;20096;-71
2021/01/18 03:21:26;;;;;;;14.80;7.65;;;9.30;66.70;;;;;;2057147;28;20030;-71
2021/01/18 03:22:48;;;;;;;12.38;7.07;;;9.30;66.70;;;;;;2053092;28;20035;-71
2021/01/18 03:24:09;;;;;;;12.70;7.28;;;9.30;66.70;;;;;;2055205;28;20058;-72
2021/01/18 03:25:29;;;;;;;14.90;7.47;;;9.30;66.70;;;;;;2056914;28;20023;-72
2021/01/18 03:26:50;;;;;;;13.63;7.30;;;9.30;66.80;;;;;;2055142;28;20461;-71
2021/01/18 03:28:11;;;;;;;12.40;7.20;;;9.30;66.70;;;;;;2054506;28;20031;-71
2021/01/18 03:29:32;;;;;;;10.07;6.78;;;9.30;66.70;;;;;;2058590;28;20038;-71
2021/01/18 03:30:53;;;;;;;11.50;7.30;;;9.30;66.70;;;;;;2052498;28;20035;-71
2021/01/18 03:32:14;;;;;;;13.20;7.30;;;9.30;66.70;;;;;;2050674;28;20042;-71
2021/01/18 03:33:35;;;;;;;11.00;7.38;;;9.30;66.80;;;;;;2055451;28;20073;-71
2021/01/18 03:34:56;;;;;;;11.10;7.03;;;9.30;66.80;;;;;;2045527;28;20027;-71
2021/01/18 03:36:17;;;;;;;11.48;7.75;;;9.30;66.80;;;;;;2054077;28;20077;-71
2021/01/18 03:37:37;;;;;;;13.20;7.93;;;9.30;66.90;;;;;;2059493;28;20037;-71
2021/01/18 03:38:58;;;;;;;14.38;8.00;;;9.30;66.90;;;;;;2048981;28;20043;-71
2021/01/18 03:40:20;;;;;;;9.75;7.05;;;9.20;66.80;;;;;;2056305;28;20035;-71
2021/01/18 03:41:44;;;;;;;15.02;8.02;;;9.20;66.90;;;;;;2052231;28;20035;-71
2021/01/18 03:43:07;;;;;;;11.20;6.85;;;9.20;67.00;;;;;;2049887;28;20031;-71
2021/01/18 03:44:27;;;;;;;12.82;6.65;;;9.20;67.00;;;;;;2050906;28;20031;-71
2021/01/18 03:45:49;;;;;;;10.95;7.60;;;9.20;67.00;;;;;;2052891;28;20038;-71
2021/01/18 03:47:10;;;;;;;18.30;7.85;;;9.20;67.00;;;;;;2056803;28;20039;-71
2021/01/18 03:48:31;;;;;;;10.10;7.13;;;9.20;67.00;;;;;;2053416;28;20035;-71
2021/01/18 03:49:52;;;;;;;11.73;7.72;;;9.20;67.00;;;;;;2055453;28;20022;-71
2021/01/18 03:51:13;;;;;;;13.80;7.53;;;9.20;67.00;;;;;;2056935;28;20059;-72
2021/01/18 03:52:34;;;;;;;13.68;7.55;;;9.30;67.00;;;;;;2054995;28;20357;-71
2021/01/18 03:53:54;;;;;;;12.48;7.53;;;9.20;66.90;;;;;;2054610;28;20484;-71
2021/01/18 03:55:16;;;;;;;10.90;6.65;;;9.20;67.00;;;;;;2055721;28;20041;-71
2021/01/18 03:56:41;;;;;;;11.73;7.35;;;9.20;67.00;;;;;;2055685;28;20042;-71
2021/01/18 03:58:02;;;;;;;12.43;8.25;;;9.20;67.00;;;;;;2045633;29;20121;-72
2021/01/18 03:59:22;;;;;;;13.38;7.82;;;9.20;67.00;;;;;;2054723;28;20026;-71
2021/01/18 04:00:43;;;;;;;10.10;6.63;;;9.20;67.00;;;;;;2055501;28;20039;-71
2021/01/18 04:02:04;;;;;;;11.60;7.20;;;9.20;67.00;;;;;;2054757;28;20524;-71
2021/01/18 04:03:27;;;;;;;11.35;6.70;;;9.20;67.00;;;;;;2055493;28;20214;-71
2021/01/18 04:04:48;;;;;;;10.57;7.35;;;9.20;67.00;;;;;;2053347;28;20034;-71
2021/01/18 04:06:09;;;;;;;11.05;7.13;;;9.20;67.00;;;;;;2058619;28;20117;-71
2021/01/18 04:07:30;;;;;;;12.70;6.65;;;9.20;67.00;;;;;;2063415;28;20030;-72
2021/01/18 04:08:51;;;;;;;9.88;7.35;;;9.20;67.00;;;;;;2057625;28;20041;-72
2021/01/18 04:10:13;;;;;;;10.32;6.90;;;9.20;67.00;;;;;;2063454;28;20054;-71
2021/01/18 04:11:34;;;;;;;11.48;6.70;;;9.20;67.00;;;;;;2069796;28;20082;-71
2021/01/18 04:12:56;;;;;;;12.68;7.40;;;9.20;66.90;;;;;;2060349;28;20388;-71
2021/01/18 04:14:17;;;;;;;13.35;6.93;;;9.20;66.90;;;;;;2063654;28;20034;-71
2021/01/18 04:15:38;;;;;;;8.93;5.97;;;9.20;66.90;;;;;;2062183;28;20073;-71
2021/01/18 04:16:59;;;;;;;13.10;7.03;;;9.10;66.80;;;;;;2059097;28;20088;-71
2021/01/18 04:18:20;;;;;;;11.93;6.97;;;9.20;66.80;;;;;;2060342;28;20054;-72
2021/01/18 04:19:41;;;;;;;10.27;7.63;;;9.20;66.70;;;;;;2065661;28;20033;-71
2021/01/18 04:21:02;;;;;;;11.88;6.63;;;9.20;66.70;;;;;;2053260;28;20050;-72
2021/01/18 04:22:23;;;;;;;9.93;6.68;;;9.20;66.70;;;;;;2053694;28;20047;-71
2021/01/18 04:23:45;;;;;;;13.05;6.95;;;9.20;66.70;;;;;;2056282;28;20056;-70
2021/01/18 04:25:06;;;;;;;11.70;7.10;;;9.20;66.70;;;;;;2063027;28;20086;-70
2021/01/18 04:26:27;;;;;;;11.88;6.68;;;9.20;66.70;;;;;;2062418;28;20065;-71
2021/01/18 04:27:55;;;;;;;11.35;6.75;;;9.20;66.70;;;;;;2065280;28;20170;-71
2021/01/18 04:29:16;;;;;;;10.63;6.90;;;9.20;66.80;;;;;;2066402;28;20026;-71
2021/01/18 04:30:38;;;;;;;9.23;6.82;;;9.10;66.70;;;;;;2054527;28;20039;-71
2021/01/18 04:31:58;;;;;;;10.40;7.18;;;9.10;66.70;;;;;;2060477;28;20034;-71
2021/01/18 04:33:24;;;;;;;12.93;7.05;;;9.20;66.80;;;;;;2060515;28;20460;-70
2021/01/18 04:34:45;;;;;;;12.68;6.68;;;9.10;66.70;;;;;;2062517;28;20092;-70
2021/01/18 04:36:06;;;;;;;16.85;7.75;;;9.10;66.80;;;;;;2062448;28;20053;-70
2021/01/18 04:37:31;;;;;;;11.07;7.10;;;9.10;66.70;;;;;;2062536;28;20485;-71
2021/01/18 04:38:52;;;;;;;10.65;7.50;;;9.10;66.70;;;;;;2064141;28;20097;-71
2021/01/18 04:40:17;;;;;;;11.52;7.22;;;9.10;66.70;;;;;;2063188;28;20072;-70
2021/01/18 04:41:43;;;;;;;12.10;7.95;;;9.10;66.70;;;;;;2064156;28;20093;-70
2021/01/18 04:43:04;;;;;;;12.68;6.70;;;9.10;66.80;;;;;;2062766;28;20042;-70
2021/01/18 04:44:27;;;;;;;14.35;8.02;;;9.10;66.90;;;;;;2063100;28;20034;-70
2021/01/18 04:45:49;;;;;;;11.43;7.32;;;9.10;66.90;;;;;;2064002;28;20022;-71
2021/01/18 04:47:13;;;;;;;15.50;7.18;;;9.10;66.90;;;;;;2062800;28;20445;-71
2021/01/18 04:48:35;;;;;;;10.90;6.88;;;9.10;66.90;;;;;;2055650;28;20552;-71
2021/01/18 04:49:57;;;;;;;13.20;7.75;;;9.20;67.00;;;;;;2054763;28;20054;-71
2021/01/18 04:51:20;;;;;;;13.57;8.07;;;9.10;67.10;;;;;;2066100;28;20331;-70
2021/01/18 04:52:44;;;;;;;10.88;7.25;;;9.10;67.10;;;;;;2062103;28;20035;-71
2021/01/18 04:54:11;;;;;;;13.27;7.47;;;9.10;67.10;;;;;;2061666;28;20037;-70
2021/01/18 04:55:43;;;;;;;11.50;7.50;;;9.10;67.20;;;;;;2064699;28;20412;-70
2021/01/18 04:57:19;;;;;;;12.23;7.60;;;9.10;67.10;;;;;;2051785;28;20042;-70
2021/01/18 04:58:45;;;;;;;10.98;7.10;;;9.10;67.20;;;;;;2062217;28;20069;-71
2021/01/18 05:00:07;;;;;;;14.23;8.27;;;9.10;67.20;;;;;;2062746;28;20035;-70
2021/01/18 05:01:30;;;;;;;15.13;7.82;;;9.10;67.10;;;;;;2062731;28;20037;-70
2021/01/18 05:02:52;;;;;;;11.70;7.75;;;9.10;67.00;;;;;;2062784;28;20034;-71
2021/01/18 05:04:26;;;;;;;13.98;7.53;;;9.10;67.10;;;;;;2061569;28;20391;-70
2021/01/18 05:05:56;;;;;;;14.85;7.53;;;9.10;67.20;;;;;;2066333;28;20030;-70
2021/01/18 05:07:35;;;;;;;15.00;8.98;;;9.10;67.20;;;;;;2056333;28;20070;-71
2021/01/18 05:09:11;;;;;;;16.48;8.23;;;9.10;67.20;;;;;;2048241;28;20089;-71
2021/01/18 05:10:33;;;;;;;13.38;7.80;;;9.10;67.10;;;;;;2054791;28;20035;-70
2021/01/18 05:11:54;;;;;;;12.60;7.50;;;9.10;67.10;;;;;;2043432;29;20030;-70
2021/01/18 05:13:18;;;;;;;12.80;7.53;;;9.10;67.10;;;;;;2053970;28;20066;-70
2021/01/18 05:14:41;;;;;;;11.05;7.60;;;9.10;67.20;;;;;;2054906;28;20512;-70
2021/01/18 05:16:02;;;;;;;14.90;8.25;;;9.10;67.30;;;;;;2056139;28;20031;-70
2021/01/18 05:17:46;;;;;;;14.27;7.75;;;9.10;67.30;;;;;;2055439;28;20023;-70
2021/01/18 05:19:09;;;;;;;14.48;7.57;;;9.10;67.60;;;;;;2051234;28;20031;-71
2021/01/18 05:20:30;;;;;;;15.75;8.77;;;9.10;67.30;;;;;;2054861;28;20039;-71
2021/01/18 05:21:51;;;;;;;12.85;8.05;;;9.20;67.30;;;;;;2055326;28;20042;-71
2021/01/18 05:23:12;;;;;;;16.33;8.27;;;9.10;67.20;;;;;;2048478;28;20023;-71
2021/01/18 05:24:33;;;;;;;15.55;8.35;;;9.20;67.40;;;;;;2051297;28;20062;-70
2021/01/18 05:26:17;;;;;;;15.73;8.95;;;9.10;67.30;;;;;;2048322;28;20369;-70
2021/01/18 05:28:00;;;;;;;13.75;8.32;;;9.10;67.40;;;;;;2054240;28;20130;-69
2021/01/18 05:29:29;;;;;;;15.00;8.73;;;9.10;67.40;;;;;;2044933;28;20035;-70
2021/01/18 05:30:50;;;;;;;16.58;8.35;;;9.10;67.30;;;;;;2050793;28;20050;-69
2021/01/18 05:32:25;;;;;;;16.67;8.52;;;9.10;67.20;;;;;;2053944;28;20023;-70
2021/01/18 05:33:45;;;;;;;11.90;8.38;;;9.10;67.30;;;;;;2053493;28;20071;-69
2021/01/18 05:35:13;;;;;;;15.32;8.10;;;9.10;67.20;;;;;;2051448;28;20035;-70
2021/01/18 05:36:37;;;;;;;11.90;8.60;;;9.10;67.20;;;;;;2057544;28;20249;-70
2021/01/18 05:38:00;;;;;;;14.70;8.52;;;9.10;67.20;;;;;;2050392;28;20015;-70
2021/01/18 05:39:21;;;;;;;14.60;8.82;;;9.10;67.20;;;;;;2056132;28;20059;-72
2021/01/18 05:40:50;;;;;;;17.63;9.07;;;9.10;67.20;;;;;;2053374;28;20064;-71
2021/01/18 05:42:20;;;;;;;13.23;8.77;;;9.10;67.30;;;;;;2053436;28;20536;-70
2021/01/18 05:43:41;;;;;;;13.48;7.88;;;9.10;67.40;;;;;;2058163;28;20034;-72
2021/01/18 05:45:02;;;;;;;12.38;8.50;;;9.10;67.30;;;;;;2053629;28;20031;-71
2021/01/18 05:46:22;;;;;;;16.77;9.05;;;9.10;67.30;;;;;;2059973;28;20027;-73
2021/01/18 05:47:44;;;;;;;15.45;8.70;;;9.00;67.30;;;;;;2062157;28;20026;-70
2021/01/18 05:49:17;;;;;;;12.13;7.70;;;9.00;67.30;;;;;;2051358;28;20041;-71
2021/01/18 05:50:39;;;;;;;13.60;8.60;;;9.00;67.50;;;;;;2054958;28;20569;-70
2021/01/18 05:52:00;;;;;;;15.18;8.32;;;9.00;67.40;;;;;;2054227;28;20114;-71
2021/01/18 05:53:28;;;;;;;16.55;8.90;;;9.00;67.40;;;;;;2048643;29;20087;-71
2021/01/18 05:54:49;;;;;;;14.25;8.07;;;9.00;67.50;;;;;;2053067;28;20031;-71
2021/01/18 05:56:18;;;;;;;18.52;8.32;;;9.00;67.50;;;;;;2058815;28;20569;-70
2021/01/18 05:57:44;;;;;;;14.88;8.25;;;9.00;67.50;;;;;;2048700;28;20142;-70
2021/01/18 05:59:20;;;;;;;14.13;8.23;;;9.00;67.40;;;;;;2048154;28;20031;-69
2021/01/18 06:00:41;;;;;;;13.15;8.05;;;9.00;67.40;;;;;;2054791;28;20101;-70
2021/01/18 06:02:08;;;;;;;13.45;8.73;;;9.00;67.30;;;;;;2050433;28;20494;-70
2021/01/18 06:03:32;;;;;;;11.98;8.48;;;9.00;67.40;;;;;;2055723;28;20361;-69
2021/01/18 06:04:53;;;;;;;16.58;8.77;;;9.00;67.40;;;;;;2050643;28;20039;-69
2021/01/18 06:06:25;;;;;;;14.55;8.48;;;9.00;67.40;;;;;;2055006;28;20038;-70
2021/01/18 06:07:47;;;;;;;19.80;9.25;;;9.00;67.60;;;;;;2062236;28;20117;-70
2021/01/18 06:09:08;;;;;;;14.43;8.65;;;9.00;67.50;;;;;;2056158;28;20113;-69
2021/01/18 06:10:33;;;;;;;15.23;8.65;;;9.00;67.50;;;;;;2049683;28;20525;-69
2021/01/18 06:11:54;;;;;;;15.30;8.10;;;9.00;67.50;;;;;;2055585;28;20031;-70
2021/01/18 06:13:28;;;;;;;17.38;8.30;;;9.00;67.50;;;;;;2056984;28;20098;-70
2021/01/18 06:15:15;;;;;;;15.15;8.63;;;9.00;67.70;;;;;;2055539;28;20027;-70
2021/01/18 06:16:39;;;;;;;13.00;7.70;;;9.00;67.80;;;;;;2056958;28;20053;-69
2021/01/18 06:18:00;;;;;;;12.80;7.90;;;9.10;67.70;;;;;;2055432;28;20497;-69
2021/01/18 06:19:24;;;;;;;17.83;9.25;;;9.00;67.60;;;;;;2057593;28;20031;-69
2021/01/18 06:20:45;;;;;;;16.42;8.60;;;9.00;67.70;;;;;;2058286;28;20097;-69
2021/01/18 06:22:06;;;;;;;14.93;9.20;;;9.00;67.70;;;;;;2051140;28;20034;-70
2021/01/18 06:23:27;;;;;;;16.05;9.05;;;9.10;67.90;;;;;;2055152;28;20405;-70
2021/01/18 06:24:48;;;;;;;16.30;8.70;;;9.00;67.80;;;;;;2049389;28;20122;-69
2021/01/18 06:26:09;;;;;;;12.65;8.18;;;9.00;67.80;;;;;;2059271;28;20499;-70
2021/01/18 06:27:33;;;;;;;16.92;9.00;;;9.00;67.70;;;;;;2053486;28;20673;-70
2021/01/18 06:28:54;;;;;;;14.25;8.65;;;9.00;67.80;;;;;;2047034;28;20038;-69
2021/01/18 06:30:27;;;;;;;16.02;9.27;;;9.10;67.80;;;;;;2052018;28;20414;-70
2021/01/18 06:31:48;;;;;;;20.13;8.80;;;9.00;67.70;;;;;;2055044;28;20037;-70
2021/01/18 06:33:12;;;;;;;17.73;9.57;;;9.10;67.70;;;;;;2055680;28;20033;-70
2021/01/18 06:34:33;;;;;;;15.98;8.32;;;9.00;67.70;;;;;;2053977;28;20526;-69
2021/01/18 06:36:09;;;;;;;13.63;8.63;;;9.00;67.70;;;;;;2054673;28;20305;-69
2021/01/18 06:37:32;;;;;;;17.58;9.38;;;9.10;67.80;;;;;;2054559;28;20039;-70
2021/01/18 06:38:59;;;;;;;13.65;9.05;;;9.10;67.70;;;;;;2048774;28;20038;-69
2021/01/18 06:40:26;;;;;;;14.57;9.02;;;9.10;67.80;;;;;;2057156;28;20039;-70
2021/01/18 06:42:01;;;;;;;15.82;9.73;;;9.10;67.70;;;;;;2049128;28;20035;-69
2021/01/18 06:43:23;;;;;;;20.25;9.77;;;9.10;67.80;;;;;;2053308;28;20031;-69
2021/01/18 06:44:43;;;;;;;14.98;8.95;;;9.10;67.70;;;;;;2050218;28;20054;-69
2021/01/18 06:46:27;;;;;;;18.50;9.45;;;9.10;67.70;;;;;;2053721;28;20043;-70
2021/01/18 06:47:48;;;;;;;17.48;8.65;;;9.00;67.80;;;;;;2059038;28;20042;-70
2021/01/18 06:49:13;;;;;;;15.90;8.98;;;9.00;67.70;;;;;;2053681;28;20059;-69
2021/01/18 06:50:36;;;;;;;17.48;9.02;;;9.10;67.80;;;;;;2055882;28;20058;-70
2021/01/18 06:51:59;;;;;;;16.52;8.90;;;9.00;67.70;;;;;;2055054;28;20457;-71
2021/01/18 06:53:31;;;;;;;19.95;9.65;;;9.00;67.70;;;;;;2046570;29;20329;-71
2021/01/18 06:55:01;;;;;;;15.57;9.02;;;9.00;67.80;;;;;;2049420;28;20027;-71
2021/01/18 06:56:21;;;;;;;14.73;8.73;;;9.00;67.70;;;;;;2056388;28;20462;-72
2021/01/18 06:57:45;;;;;;;17.45;9.40;;;9.10;67.70;;;;;;2059601;28;20030;-68
2021/01/18 06:59:44;;;;;;;15.70;8.43;;;9.10;67.80;;;;;;2053290;28;20667;-72
2021/01/18 07:01:07;;;;;;;12.63;8.23;;;9.10;67.70;;;;;;2054347;28;20046;-70
2021/01/18 07:02:31;;;;;;;19.23;9.30;;;9.10;67.50;;;;;;2055197;28;20039;-70
2021/01/18 07:04:02;;;;;;;15.02;9.88;;;9.10;67.40;;;;;;2054604;28;20397;-71
2021/01/18 07:05:42;;;;;;;16.40;10.32;;;9.10;67.40;;;;;;2052676;28;20135;-68
2021/01/18 07:07:08;;;;;;;18.13;8.50;;;9.00;67.40;;;;;;2050511;28;20607;-70
2021/01/18 07:08:40;;;;;;;17.40;9.65;;;9.10;67.30;;;;;;2054858;28;20051;-70
2021/01/18 07:10:04;;;;;;;20.42;10.25;;;9.10;67.40;;;;;;2049372;28;20031;-71
2021/01/18 07:11:26;;;;;;;21.13;10.38;;;9.00;67.30;;;;;;2055928;28;20031;-71
2021/01/18 07:12:48;;;;;;;18.33;10.57;;;9.00;67.20;;;;;;2055715;28;20027;-71
2021/01/18 07:14:11;;;;;;;17.05;10.18;;;9.00;67.30;;;;;;2054922;28;20541;-71
2021/01/18 07:15:36;;;;;;;17.90;10.63;;;9.00;67.20;;;;;;2056056;28;20030;-71
2021/01/18 07:17:06;;;;;;;21.15;10.52;;;9.00;67.30;;;;;;2055094;28;20033;-71
2021/01/18 07:18:31;;;;;;;;;;;9.00;67.40;;;;;;2053679;28;20113;-70
2021/01/18 07:19:58;;;;;;;15.55;8.63;;;9.00;67.60;;;;;;2056438;28;20333;-70
2021/01/18 07:21:20;;;;;;;18.25;10.13;;;9.00;67.20;;;;;;2055195;28;20023;-71
2021/01/18 07:23:17;;;;;;;18.60;10.35;;;9.00;67.10;;;;;;2055748;28;20075;-70